Time;durP1;ratioP1;P1;durP2;ratioP2;P2;SDS_P1;SDS_P2;PMS_P1;PMS_P2;Temp;Humidity;BMP_temperature;BMP_pressure;BME280_temperature;BME280_humidity;BME280_pressure;Samples;Min_cycle;Max_cycle;Signal;HPM_P1;HPM_P2
2022/03/02 00:01:31;;;;;;;14.00;7.95;;;2.50;49.30;;;;;;5074442;28;20075;-73
2022/03/02 00:03:57;;;;;;;19.83;8.50;;;2.50;49.20;;;;;;5067027;28;20028;-74
2022/03/02 00:06:22;;;;;;;16.98;9.48;;;2.50;49.30;;;;;;5054225;28;20033;-75
2022/03/02 00:08:48;;;;;;;18.48;9.65;;;2.50;49.30;;;;;;5066545;28;20078;-74
2022/03/02 00:11:16;;;;;;;18.52;9.07;;;2.50;49.40;;;;;;5073156;28;20098;-73
2022/03/02 00:13:42;;;;;;;18.52;9.90;;;2.50;49.50;;;;;;5074162;28;20012;-74
2022/03/02 00:16:08;;;;;;;18.15;9.75;;;2.40;49.60;;;;;;5074162;28;20359;-75
2022/03/02 00:18:34;;;;;;;19.65;9.98;;;2.40;49.70;;;;;;5058291;28;20033;-73
2022/03/02 00:21:00;;;;;;;17.92;8.73;;;2.40;49.70;;;;;;5054093;28;20021;-72
2022/03/02 00:23:29;;;;;;;15.90;8.68;;;2.40;49.80;;;;;;5054149;28;20035;-71
2022/03/02 00:25:55;;;;;;;21.13;10.38;;;2.40;49.80;;;;;;5053980;28;20036;-75
2022/03/02 00:28:21;;;;;;;17.83;8.85;;;2.30;49.80;;;;;;5054030;28;20032;-76
2022/03/02 00:30:47;;;;;;;16.90;9.55;;;2.30;49.80;;;;;;5053753;28;20056;-72
2022/03/02 00:33:13;;;;;;;18.55;8.50;;;2.30;49.80;;;;;;5052595;28;20057;-72
2022/03/02 00:35:39;;;;;;;17.60;10.25;;;2.30;49.80;;;;;;5056060;28;20055;-76
2022/03/02 00:38:09;;;;;;;20.17;8.48;;;2.30;49.80;;;;;;5070387;28;20450;-73
2022/03/02 00:40:35;;;;;;;16.77;8.85;;;2.30;50.00;;;;;;5073358;28;20028;-75
2022/03/02 00:43:01;;;;;;;20.13;8.50;;;2.30;49.80;;;;;;5064446;28;20024;-71
2022/03/02 00:45:27;;;;;;;22.10;9.40;;;2.20;49.80;;;;;;5053531;28;20363;-73
2022/03/02 00:47:52;;;;;;;23.95;10.43;;;2.20;49.90;;;;;;5053601;28;20017;-75
2022/03/02 00:50:19;;;;;;;18.92;10.20;;;2.20;50.10;;;;;;5053521;28;20028;-72
2022/03/02 00:52:45;;;;;;;18.92;8.38;;;2.20;50.20;;;;;;5053359;28;20029;-75
2022/03/02 00:55:11;;;;;;;14.85;8.52;;;2.20;50.20;;;;;;5053476;28;20028;-73
2022/03/02 00:57:37;;;;;;;17.05;8.40;;;2.20;50.10;;;;;;5053328;28;20072;-74
2022/03/02 01:00:04;;;;;;;18.45;9.40;;;2.30;50.10;;;;;;5052012;28;20478;-74
2022/03/02 01:02:30;;;;;;;15.93;8.95;;;2.20;50.80;;;;;;5052018;28;20029;-73
2022/03/02 01:04:56;;;;;;;15.70;8.93;;;2.20;50.20;;;;;;5053174;28;20070;-72
2022/03/02 01:07:22;;;;;;;19.13;10.32;;;2.20;50.20;;;;;;5056359;28;20075;-74
2022/03/02 01:09:48;;;;;;;17.08;9.82;;;2.20;50.20;;;;;;5051892;28;20040;-76
2022/03/02 01:12:13;;;;;;;19.73;9.27;;;2.20;50.20;;;;;;5053235;28;20028;-72
2022/03/02 01:14:39;;;;;;;15.32;8.45;;;2.20;50.20;;;;;;5053141;28;20142;-72
2022/03/02 01:17:05;;;;;;;15.88;8.27;;;2.10;50.10;;;;;;5053034;28;20101;-70
2022/03/02 01:19:31;;;;;;;19.15;9.93;;;2.20;50.20;;;;;;5052998;28;20033;-76
2022/03/02 01:21:56;;;;;;;17.95;9.80;;;2.10;50.20;;;;;;5052444;28;20032;-71
2022/03/02 01:24:23;;;;;;;17.45;9.40;;;2.10;50.30;;;;;;5056071;28;20107;-73
2022/03/02 01:26:48;;;;;;;17.60;9.05;;;2.10;50.40;;;;;;5052816;28;20053;-74
2022/03/02 01:29:14;;;;;;;20.60;8.85;;;2.10;50.30;;;;;;5052851;28;20102;-73
2022/03/02 01:31:40;;;;;;;16.23;8.52;;;2.10;50.30;;;;;;5052762;28;20033;-72
2022/03/02 01:34:06;;;;;;;18.98;9.25;;;2.10;50.30;;;;;;5052844;28;20025;-75
2022/03/02 01:36:32;;;;;;;14.23;7.50;;;2.10;50.30;;;;;;5052750;28;20028;-75
2022/03/02 01:38:57;;;;;;;17.75;7.40;;;2.00;50.30;;;;;;5051571;28;20500;-76
2022/03/02 01:41:25;;;;;;;13.48;7.18;;;2.00;50.20;;;;;;5053208;28;20028;-74
2022/03/02 01:43:53;;;;;;;13.95;7.50;;;2.00;50.10;;;;;;5056197;28;20059;-70
2022/03/02 01:46:19;;;;;;;13.88;7.80;;;1.90;50.30;;;;;;5053743;28;20017;-74
2022/03/02 01:48:46;;;;;;;18.73;8.73;;;1.90;50.40;;;;;;5052665;28;20431;-72
2022/03/02 01:51:12;;;;;;;20.02;9.10;;;1.90;50.60;;;;;;5052549;28;20013;-73
2022/03/02 01:53:39;;;;;;;16.25;7.78;;;1.90;50.90;;;;;;5052569;28;20021;-75
2022/03/02 01:56:05;;;;;;;16.90;9.07;;;1.90;50.90;;;;;;5051241;28;20029;-72
2022/03/02 01:58:31;;;;;;;14.60;7.65;;;1.90;50.90;;;;;;5051177;28;20048;-72
2022/03/02 02:00:58;;;;;;;18.27;8.48;;;1.90;50.80;;;;;;5055379;28;20029;-74
2022/03/02 02:03:25;;;;;;;17.38;8.27;;;1.90;50.90;;;;;;5052288;28;20025;-74
2022/03/02 02:05:51;;;;;;;22.08;8.50;;;1.80;50.90;;;;;;5052388;28;20393;-72
2022/03/02 02:08:17;;;;;;;17.35;8.25;;;1.80;50.80;;;;;;5052134;28;20100;-72
2022/03/02 02:10:43;;;;;;;17.65;8.70;;;1.80;50.80;;;;;;5066965;28;20128;-74
2022/03/02 02:13:09;;;;;;;20.60;9.57;;;1.80;50.80;;;;;;5071074;28;20052;-74
2022/03/02 02:15:35;;;;;;;16.15;8.10;;;1.80;50.80;;;;;;5071930;28;20028;-74
2022/03/02 02:18:01;;;;;;;21.10;10.90;;;1.80;50.80;;;;;;5065466;28;20377;-74
2022/03/02 02:20:27;;;;;;;18.35;9.75;;;1.80;51.00;;;;;;5055177;28;20110;-73
2022/03/02 02:22:53;;;;;;;20.88;11.50;;;1.80;51.00;;;;;;5052100;28;20028;-72
2022/03/02 02:25:19;;;;;;;24.33;11.82;;;1.80;51.10;;;;;;5052206;28;20029;-75
2022/03/02 02:27:47;;;;;;;20.23;11.30;;;1.70;51.20;;;;;;5052210;28;20087;-76
2022/03/02 02:30:14;;;;;;;20.20;11.55;;;1.70;51.40;;;;;;5052119;28;20049;-74
2022/03/02 02:32:41;;;;;;;24.90;11.88;;;1.70;51.60;;;;;;5052431;28;20025;-71
2022/03/02 02:35:09;;;;;;;22.30;11.80;;;1.80;51.70;;;;;;5054367;28;20425;-75
2022/03/02 02:37:37;;;;;;;21.58;11.52;;;1.80;51.70;;;;;;5055978;28;20523;-75
2022/03/02 02:40:16;;;;;;;23.45;11.65;;;1.70;51.60;;;;;;5056711;28;20033;-76
2022/03/02 02:42:45;;;;;;;21.10;12.15;;;1.70;51.70;;;;;;5075792;28;20474;-73
2022/03/02 02:45:17;;;;;;;23.80;12.27;;;1.70;51.60;;;;;;5071371;28;20025;-72
2022/03/02 02:47:44;;;;;;;22.83;11.60;;;1.70;51.90;;;;;;5054574;28;20049;-74
2022/03/02 02:50:33;;;;;;;21.98;11.10;;;1.70;52.00;;;;;;5055843;28;20017;-71
2022/03/02 02:53:02;;;;;;;17.95;10.13;;;1.70;52.10;;;;;;5055806;28;20028;-71
2022/03/02 02:55:29;;;;;;;17.30;9.45;;;1.70;51.90;;;;;;5055579;28;20029;-77
2022/03/02 02:57:57;;;;;;;18.77;8.88;;;1.80;51.70;;;;;;5053685;28;20468;-74
2022/03/02 03:00:26;;;;;;;15.55;9.13;;;1.80;51.60;;;;;;5072070;28;20024;-74
2022/03/02 03:02:53;;;;;;;19.08;9.00;;;1.70;51.50;;;;;;5075517;28;20082;-74
2022/03/02 03:05:21;;;;;;;17.77;9.15;;;1.70;51.70;;;;;;5075497;28;20354;-77
2022/03/02 03:07:49;;;;;;;19.13;9.93;;;1.70;51.60;;;;;;5061225;28;20024;-74
2022/03/02 03:10:16;;;;;;;17.13;8.98;;;1.70;51.60;;;;;;5054128;28;20386;-76
2022/03/02 03:12:43;;;;;;;24.42;9.82;;;1.70;51.60;;;;;;5055424;28;20069;-71
2022/03/02 03:15:11;;;;;;;14.23;7.90;;;1.70;51.60;;;;;;5055311;28;20482;-74
2022/03/02 03:17:37;;;;;;;17.00;9.13;;;1.60;51.60;;;;;;5055541;28;20411;-76
2022/03/02 03:20:05;;;;;;;18.88;9.75;;;1.60;51.70;;;;;;5055327;28;20100;-72
2022/03/02 03:22:31;;;;;;;18.92;9.55;;;1.60;52.10;;;;;;5054966;28;20021;-73
2022/03/02 03:24:57;;;;;;;17.33;9.32;;;1.60;52.40;;;;;;5055367;28;20021;-78
2022/03/02 03:27:23;;;;;;;25.08;10.10;;;1.60;52.40;;;;;;5053984;28;20021;-77
2022/03/02 03:29:49;;;;;;;19.23;10.27;;;1.60;52.40;;;;;;5056091;28;20091;-73
2022/03/02 03:32:14;;;;;;;20.25;8.75;;;1.60;52.30;;;;;;5060304;28;20033;-71
2022/03/02 03:34:40;;;;;;;17.65;9.25;;;1.60;52.10;;;;;;5070325;28;20028;-76
2022/03/02 03:37:06;;;;;;;20.38;8.93;;;1.50;52.00;;;;;;5062281;28;20048;-76
2022/03/02 03:39:32;;;;;;;24.33;11.05;;;1.50;52.00;;;;;;5056058;28;20029;-75
2022/03/02 03:41:57;;;;;;;19.80;9.48;;;1.50;52.20;;;;;;5060134;28;20433;-72
2022/03/02 03:44:24;;;;;;;16.60;9.00;;;1.50;52.30;;;;;;5055302;28;20018;-75
2022/03/02 03:46:50;;;;;;;19.63;9.18;;;1.50;52.20;;;;;;5054763;28;20021;-76
2022/03/02 03:49:15;;;;;;;21.13;8.98;;;1.50;52.30;;;;;;5068215;28;20075;-71
2022/03/02 03:51:42;;;;;;;19.80;7.53;;;1.50;52.30;;;;;;5074731;28;20486;-73
2022/03/02 03:54:08;;;;;;;14.50;7.40;;;1.40;52.20;;;;;;5073447;28;20024;-73
2022/03/02 03:56:34;;;;;;;15.15;8.80;;;1.40;52.20;;;;;;5074395;28;20095;-76
2022/03/02 03:59:00;;;;;;;20.67;8.45;;;1.40;52.30;;;;;;5074594;28;20032;-72
2022/03/02 04:01:27;;;;;;;17.60;8.68;;;1.40;52.20;;;;;;5074430;28;20032;-72
2022/03/02 04:03:53;;;;;;;16.23;8.80;;;1.40;52.40;;;;;;5074483;28;20021;-72
2022/03/02 04:06:19;;;;;;;14.55;8.63;;;1.30;52.10;;;;;;5074364;28;20017;-71
2022/03/02 04:08:46;;;;;;;19.83;10.27;;;1.30;52.20;;;;;;5074364;28;20020;-72
2022/03/02 04:11:12;;;;;;;18.65;9.30;;;1.30;52.30;;;;;;5074281;28;20054;-72
2022/03/02 04:13:38;;;;;;;22.73;10.77;;;1.30;52.30;;;;;;5072912;28;20025;-73
2022/03/02 04:16:05;;;;;;;20.38;10.65;;;1.30;52.30;;;;;;5065656;28;20043;-74
2022/03/02 04:18:34;;;;;;;19.88;10.50;;;1.30;52.30;;;;;;5054096;28;20024;-74
2022/03/02 04:21:00;;;;;;;20.70;11.40;;;1.30;52.50;;;;;;5054008;28;20063;-75
2022/03/02 04:23:27;;;;;;;22.45;11.55;;;1.30;52.50;;;;;;5052608;28;20394;-74
2022/03/02 04:25:53;;;;;;;22.08;11.75;;;1.30;52.60;;;;;;5054080;28;20059;-72
2022/03/02 04:28:20;;;;;;;24.15;12.25;;;1.30;52.70;;;;;;5054093;28;20025;-74
2022/03/02 04:30:46;;;;;;;24.58;11.05;;;1.30;52.90;;;;;;5054030;28;20100;-74
2022/03/02 04:33:12;;;;;;;26.83;12.27;;;1.30;52.90;;;;;;5053768;28;20620;-76
2022/03/02 04:35:39;;;;;;;28.55;11.70;;;1.30;52.90;;;;;;5053748;28;20046;-75
2022/03/02 04:38:05;;;;;;;26.17;13.00;;;1.30;52.90;;;;;;5053629;28;20032;-74
2022/03/02 04:40:31;;;;;;;22.50;11.52;;;1.40;53.00;;;;;;5053588;28;20028;-72
2022/03/02 04:42:57;;;;;;;22.88;11.35;;;1.40;53.00;;;;;;5053472;28;20025;-74
2022/03/02 04:45:27;;;;;;;23.58;12.80;;;1.40;52.90;;;;;;5052327;28;20471;-75
2022/03/02 04:47:57;;;;;;;28.92;13.40;;;1.30;52.90;;;;;;5053518;28;20021;-73
2022/03/02 04:50:24;;;;;;;21.40;10.88;;;1.30;52.90;;;;;;5054447;28;20020;-73
2022/03/02 04:52:52;;;;;;;25.65;12.20;;;1.30;52.90;;;;;;5073465;28;20024;-77
2022/03/02 04:55:18;;;;;;;22.95;12.98;;;1.30;52.90;;;;;;5073325;28;20021;-75
2022/03/02 04:57:47;;;;;;;26.77;14.50;;;1.30;52.90;;;;;;5072579;28;20502;-72
2022/03/02 05:00:18;;;;;;;25.30;13.60;;;1.30;52.90;;;;;;5073187;28;20074;-72
2022/03/02 05:02:45;;;;;;;22.40;12.52;;;1.30;53.00;;;;;;5073267;28;20059;-73
2022/03/02 05:05:13;;;;;;;20.98;12.05;;;1.30;53.00;;;;;;5071900;28;20386;-73
2022/03/02 05:07:40;;;;;;;21.35;11.93;;;1.30;53.00;;;;;;5073105;28;20519;-74
2022/03/02 05:10:07;;;;;;;22.65;11.40;;;1.30;53.10;;;;;;5073165;28;20025;-77
2022/03/02 05:12:33;;;;;;;18.42;10.70;;;1.30;53.30;;;;;;5073023;28;20046;-75
2022/03/02 05:14:59;;;;;;;21.98;11.13;;;1.30;53.20;;;;;;5073007;28;20509;-73
2022/03/02 05:17:25;;;;;;;18.50;10.43;;;1.20;53.10;;;;;;5072986;28;20025;-78
2022/03/02 05:19:52;;;;;;;23.08;12.35;;;1.20;53.10;;;;;;5059772;28;20095;-74
2022/03/02 05:22:17;;;;;;;28.63;13.27;;;1.20;53.10;;;;;;5052734;28;20025;-74
2022/03/02 05:24:43;;;;;;;29.77;12.85;;;1.20;53.30;;;;;;5052896;28;20044;-77
2022/03/02 05:27:09;;;;;;;21.88;12.02;;;1.20;53.40;;;;;;5052604;28;20383;-74
2022/03/02 05:29:36;;;;;;;23.02;11.70;;;1.20;53.40;;;;;;5052795;28;20029;-71
2022/03/02 05:32:03;;;;;;;24.42;12.25;;;1.20;53.30;;;;;;5051575;28;20120;-72
2022/03/02 05:34:29;;;;;;;28.92;14.70;;;1.20;53.30;;;;;;5051381;28;20025;-74
2022/03/02 05:36:55;;;;;;;28.80;14.63;;;1.20;53.40;;;;;;5057733;28;20448;-73
2022/03/02 05:39:22;;;;;;;27.88;13.57;;;1.20;53.60;;;;;;5072502;28;20099;-75
2022/03/02 05:41:49;;;;;;;24.75;13.40;;;1.20;53.60;;;;;;5070220;28;20024;-73
2022/03/02 05:44:14;;;;;;;23.95;12.13;;;1.20;53.60;;;;;;5072817;28;20079;-74
2022/03/02 05:46:40;;;;;;;22.90;12.38;;;1.20;53.50;;;;;;5067341;28;20060;-74
2022/03/02 05:49:08;;;;;;;28.13;12.50;;;1.10;54.10;;;;;;5052653;28;20029;-74
2022/03/02 05:51:35;;;;;;;28.90;13.30;;;1.10;53.60;;;;;;5052535;28;20033;-75
2022/03/02 05:54:03;;;;;;;26.90;13.73;;;1.10;53.60;;;;;;5052489;28;20025;-74
2022/03/02 05:56:32;;;;;;;23.85;12.35;;;1.10;53.60;;;;;;5052402;28;20029;-75
2022/03/02 05:58:58;;;;;;;21.02;11.75;;;1.10;53.70;;;;;;5067866;28;20143;-74
2022/03/02 06:01:24;;;;;;;22.08;11.25;;;1.10;53.80;;;;;;5052443;28;20099;-76
2022/03/02 06:03:51;;;;;;;25.75;11.70;;;1.10;53.90;;;;;;5052462;28;20024;-74
2022/03/02 06:06:16;;;;;;;21.42;11.68;;;1.20;53.90;;;;;;5053820;28;20047;-71
2022/03/02 06:08:43;;;;;;;24.52;11.18;;;1.20;53.90;;;;;;5072514;28;20530;-74
2022/03/02 06:11:10;;;;;;;24.20;11.32;;;1.20;53.90;;;;;;5076348;28;20021;-75
2022/03/02 06:13:36;;;;;;;20.73;10.52;;;1.20;53.90;;;;;;5075197;28;20028;-74
2022/03/02 06:16:03;;;;;;;21.65;10.05;;;1.20;53.90;;;;;;5076378;28;20389;-72
2022/03/02 06:18:29;;;;;;;17.23;8.68;;;1.30;53.90;;;;;;5076315;28;20028;-74
2022/03/02 06:21:02;;;;;;;22.33;10.38;;;1.30;53.90;;;;;;5076150;28;20028;-72
2022/03/02 06:23:28;;;;;;;31.17;11.65;;;1.40;54.00;;;;;;5076171;28;20158;-73
2022/03/02 06:25:56;;;;;;;22.65;10.98;;;1.40;54.10;;;;;;5074448;28;20028;-74
2022/03/02 06:28:22;;;;;;;22.95;11.10;;;1.50;54.20;;;;;;5076201;28;20040;-72
2022/03/02 06:30:48;;;;;;;26.00;11.30;;;1.50;54.40;;;;;;5076109;28;20020;-75
2022/03/02 06:33:18;;;;;;;22.27;11.63;;;1.60;54.70;;;;;;5076102;28;20165;-71
2022/03/02 06:35:48;;;;;;;18.70;11.02;;;1.60;54.80;;;;;;5057766;28;20045;-74
2022/03/02 06:38:14;;;;;;;20.13;10.73;;;1.70;54.90;;;;;;5055847;28;20547;-74
2022/03/02 06:40:47;;;;;;;19.02;10.15;;;1.80;55.00;;;;;;5055793;28;20021;-75
2022/03/02 06:43:18;;;;;;;18.00;9.25;;;1.80;54.80;;;;;;5054491;28;20039;-72
2022/03/02 06:46:29;;;;;;;16.85;9.27;;;1.90;54.70;;;;;;5055757;28;20033;-72
2022/03/02 06:49:33;;;;;;;21.52;10.02;;;2.00;54.60;;;;;;5053418;28;20013;-75
2022/03/02 06:52:00;;;;;;;19.45;9.60;;;2.10;54.40;;;;;;5042937;28;20526;-71
2022/03/02 06:54:30;;;;;;;20.90;10.52;;;2.20;54.20;;;;;;5053321;28;20029;-75
2022/03/02 06:57:00;;;;;;;22.63;12.07;;;2.30;54.20;;;;;;5036339;28;20568;-75
2022/03/02 06:59:35;;;;;;;28.70;12.90;;;2.30;54.20;;;;;;5053377;28;20037;-74
2022/03/02 07:02:03;;;;;;;26.30;12.32;;;2.40;54.50;;;;;;5053259;28;20021;-73
2022/03/02 07:04:34;;;;;;;23.15;11.70;;;2.40;54.40;;;;;;5036497;28;20025;-73
2022/03/02 07:07:02;;;;;;;22.52;11.18;;;2.50;54.50;;;;;;5062053;28;20116;-75
2022/03/02 07:09:30;;;;;;;22.00;10.80;;;2.60;54.50;;;;;;5056310;28;20059;-73
2022/03/02 07:11:58;;;;;;;20.17;10.30;;;2.70;54.40;;;;;;5073016;28;20033;-73
2022/03/02 07:14:30;;;;;;;19.98;10.15;;;2.80;54.20;;;;;;5073170;28;20068;-73
2022/03/02 07:17:01;;;;;;;23.30;9.98;;;2.80;54.00;;;;;;5063490;28;20067;-73
2022/03/02 07:19:27;;;;;;;21.33;10.70;;;2.90;53.70;;;;;;5064705;28;20055;-76
2022/03/02 07:21:55;;;;;;;24.85;10.30;;;3.00;53.70;;;;;;5054518;28;20049;-71
2022/03/02 07:24:25;;;;;;;24.23;11.07;;;3.10;53.80;;;;;;5055113;28;20505;-73
2022/03/02 07:26:56;;;;;;;37.35;12.75;;;3.10;53.70;;;;;;5053699;28;20047;-73
2022/03/02 07:29:26;;;;;;;24.48;12.50;;;3.20;53.80;;;;;;5055054;28;20291;-73
2022/03/02 07:31:55;;;;;;;24.48;12.35;;;3.30;53.90;;;;;;5055001;28;20394;-72
2022/03/02 07:34:23;;;;;;;32.25;11.75;;;3.40;53.70;;;;;;5054815;28;20029;-73
2022/03/02 07:36:50;;;;;;;26.30;12.60;;;3.40;53.60;;;;;;5055602;28;20021;-72
2022/03/02 07:39:16;;;;;;;23.60;11.52;;;3.50;53.60;;;;;;5053478;28;20041;-75
2022/03/02 07:41:42;;;;;;;27.65;11.93;;;3.60;53.50;;;;;;5054744;28;20469;-72
2022/03/02 07:44:09;;;;;;;29.45;13.20;;;3.70;53.50;;;;;;5054732;28;20104;-72
2022/03/02 07:46:35;;;;;;;27.92;15.30;;;3.70;53.30;;;;;;5054540;28;20090;-75
2022/03/02 07:49:02;;;;;;;36.80;15.82;;;3.80;53.10;;;;;;5074692;28;20034;-76
2022/03/02 07:51:28;;;;;;;27.55;15.13;;;3.90;52.80;;;;;;5074812;28;20032;-74
2022/03/02 07:53:59;;;;;;;36.67;18.27;;;4.00;52.70;;;;;;5074755;28;20501;-73
2022/03/02 07:56:28;;;;;;;65.60;25.63;;;4.10;52.60;;;;;;5074659;28;20473;-71
2022/03/02 07:59:04;;;;;;;45.63;22.40;;;4.20;52.30;;;;;;5073666;28;20115;-74
2022/03/02 08:01:36;;;;;;;42.25;20.98;;;4.30;52.20;;;;;;5074368;28;20020;-72
2022/03/02 08:04:06;;;;;;;51.10;20.83;;;4.40;52.10;;;;;;5074400;28;20027;-75
2022/03/02 08:06:35;;;;;;;38.70;19.85;;;4.50;52.00;;;;;;5069365;28;20104;-74
2022/03/02 08:09:03;;;;;;;46.33;20.65;;;4.60;51.80;;;;;;5054372;28;20044;-75
2022/03/02 08:11:32;;;;;;;44.28;22.75;;;4.80;51.60;;;;;;5054263;28;20428;-76
2022/03/02 08:13:59;;;;;;;46.90;23.70;;;4.80;51.40;;;;;;5054126;28;20021;-74
2022/03/02 08:16:27;;;;;;;50.72;24.83;;;5.00;51.10;;;;;;5054283;28;20017;-73
2022/03/02 08:18:53;;;;;;;61.72;26.27;;;5.00;50.80;;;;;;5054130;28;20056;-72
2022/03/02 08:21:20;;;;;;;43.97;22.92;;;5.10;50.50;;;;;;5053988;28;20418;-76
2022/03/02 08:23:50;;;;;;;41.22;20.70;;;5.10;50.30;;;;;;5053921;28;20363;-74
2022/03/02 08:26:22;;;;;;;37.50;20.10;;;5.20;50.30;;;;;;5054116;28;20025;-73
2022/03/02 08:28:54;;;;;;;43.90;20.35;;;5.30;50.00;;;;;;5054509;28;20036;-73
2022/03/02 08:31:21;;;;;;;43.40;18.70;;;5.30;49.70;;;;;;5054254;28;20017;-71
2022/03/02 08:33:48;;;;;;;37.28;19.35;;;5.40;49.60;;;;;;5053556;28;20093;-75
2022/03/02 08:36:20;;;;;;;39.28;22.55;;;5.40;49.50;;;;;;5053569;28;20013;-73
2022/03/02 08:38:46;;;;;;;42.50;22.95;;;5.50;49.60;;;;;;5053600;28;20432;-73
2022/03/02 08:41:12;;;;;;;42.30;19.55;;;5.50;49.70;;;;;;5053410;28;20024;-74
2022/03/02 08:43:39;;;;;;;36.97;20.30;;;5.60;49.60;;;;;;5052261;28;20367;-72
2022/03/02 08:46:07;;;;;;;42.05;22.25;;;5.70;49.50;;;;;;5053433;28;20021;-74
2022/03/02 08:48:33;;;;;;;41.88;22.23;;;5.70;49.50;;;;;;5052150;28;20025;-76
2022/03/02 08:51:00;;;;;;;34.25;18.42;;;5.80;49.00;;;;;;5053241;28;20055;-72
2022/03/02 08:53:26;;;;;;;28.92;17.27;;;5.80;48.80;;;;;;5052104;28;20453;-72
2022/03/02 08:55:55;;;;;;;27.92;15.75;;;5.90;48.80;;;;;;5053423;28;20052;-76
2022/03/02 08:58:22;;;;;;;38.58;16.23;;;5.90;48.60;;;;;;5053213;28;20410;-74
2022/03/02 09:00:51;;;;;;;26.83;14.63;;;6.00;48.10;;;;;;5053381;28;20021;-74
2022/03/02 09:03:17;;;;;;;28.75;15.35;;;6.10;47.80;;;;;;5053081;28;20124;-75
2022/03/02 09:05:43;;;;;;;28.00;14.73;;;6.20;47.70;;;;;;5053114;28;20031;-73
2022/03/02 09:08:09;;;;;;;31.30;15.63;;;6.20;47.60;;;;;;5053521;28;20054;-72
2022/03/02 09:10:35;;;;;;;35.60;16.48;;;6.40;47.60;;;;;;5053163;28;20021;-72
2022/03/02 09:13:02;;;;;;;31.77;15.25;;;6.40;47.30;;;;;;5054882;28;20017;-73
2022/03/02 09:15:28;;;;;;;39.22;17.27;;;6.50;47.10;;;;;;5062580;28;20059;-76
2022/03/02 09:17:55;;;;;;;33.22;17.02;;;6.70;46.90;;;;;;5072957;28;20160;-75
2022/03/02 09:20:22;;;;;;;31.70;15.70;;;6.80;46.80;;;;;;5070623;28;20027;-77
2022/03/02 09:22:50;;;;;;;32.88;18.02;;;7.00;46.50;;;;;;5072871;28;20024;-74
2022/03/02 09:25:16;;;;;;;41.60;16.23;;;7.10;46.40;;;;;;5072874;28;20034;-75
2022/03/02 09:27:42;;;;;;;35.08;17.70;;;7.20;46.20;;;;;;5072718;28;20453;-74
2022/03/02 09:30:10;;;;;;;32.75;16.27;;;7.40;45.40;;;;;;5064246;28;20448;-74
2022/03/02 09:32:40;;;;;;;38.55;14.65;;;7.50;44.90;;;;;;5052755;28;20382;-72
2022/03/02 09:35:10;;;;;;;37.58;15.77;;;7.60;44.80;;;;;;5051719;28;20024;-73
2022/03/02 09:37:42;;;;;;;25.95;14.43;;;7.70;44.50;;;;;;5054565;28;20027;-73
2022/03/02 09:40:18;;;;;;;29.92;14.73;;;7.70;43.80;;;;;;5052984;28;20017;-70
2022/03/02 09:42:53;;;;;;;27.88;15.68;;;7.80;43.70;;;;;;5051073;28;20366;-74
2022/03/02 09:45:21;;;;;;;32.60;13.10;;;7.80;43.70;;;;;;5052539;28;20100;-70
2022/03/02 09:47:52;;;;;;;23.48;13.50;;;7.90;43.70;;;;;;5052683;28;20104;-72
2022/03/02 09:50:19;;;;;;;26.13;12.95;;;8.00;43.70;;;;;;5056295;28;20075;-73
2022/03/02 09:52:47;;;;;;;27.98;13.00;;;8.10;43.80;;;;;;5061030;28;20055;-71
2022/03/02 09:55:21;;;;;;;27.25;14.23;;;8.20;43.40;;;;;;5071281;28;20052;-74
2022/03/02 09:57:50;;;;;;;27.52;13.82;;;8.30;42.90;;;;;;5053838;28;20501;-73
2022/03/02 10:00:21;;;;;;;36.50;13.98;;;8.50;42.90;;;;;;5052227;28;20108;-74
2022/03/02 10:02:49;;;;;;;28.67;13.82;;;8.60;42.30;;;;;;5052378;28;20022;-75
2022/03/02 10:05:18;;;;;;;21.52;12.40;;;8.80;42.00;;;;;;5052126;28;20559;-76
2022/03/02 10:07:55;;;;;;;25.77;12.80;;;8.90;41.60;;;;;;5065544;28;20033;-74
2022/03/02 10:10:23;;;;;;;28.05;11.52;;;9.00;41.20;;;;;;5071148;28;20367;-72
2022/03/02 10:12:55;;;;;;;24.77;11.32;;;9.10;41.00;;;;;;5072215;28;20069;-73
2022/03/02 10:15:21;;;;;;;26.83;11.27;;;9.30;40.90;;;;;;5070622;28;20063;-76
2022/03/02 10:17:51;;;;;;;21.25;10.93;;;9.40;40.20;;;;;;5055417;28;20057;-75
2022/03/02 10:20:27;;;;;;;23.60;11.88;;;9.50;40.00;;;;;;5071829;28;20032;-73
2022/03/02 10:23:18;;;;;;;21.15;10.70;;;9.60;39.70;;;;;;5068119;28;20513;-73
2022/03/02 10:25:57;;;;;;;23.40;10.73;;;9.80;40.00;;;;;;5052370;28;20024;-75
2022/03/02 10:28:28;;;;;;;22.88;11.57;;;9.90;39.40;;;;;;5050902;28;20013;-72
2022/03/02 10:31:05;;;;;;;37.20;13.25;;;10.00;39.00;;;;;;5052266;28;20021;-73
2022/03/02 10:33:37;;;;;;;25.90;13.25;;;10.10;39.70;;;;;;5057469;28;20025;-76
2022/03/02 10:36:09;;;;;;;31.85;14.60;;;10.10;38.40;;;;;;5072136;28;20090;-74
2022/03/02 10:38:59;;;;;;;24.33;12.63;;;10.20;38.10;;;;;;5054096;28;20025;-73
2022/03/02 10:41:27;;;;;;;28.05;14.40;;;10.30;38.10;;;;;;5050802;28;20025;-72
2022/03/02 10:43:58;;;;;;;21.98;11.52;;;10.40;37.70;;;;;;5052009;28;20100;-70
2022/03/02 10:46:26;;;;;;;23.85;12.73;;;10.50;38.00;;;;;;5052125;28;20021;-72
2022/03/02 10:49:01;;;;;;;27.77;13.00;;;10.60;37.60;;;;;;5052055;28;20104;-71
2022/03/02 10:51:30;;;;;;;29.90;13.40;;;10.70;37.90;;;;;;5052049;28;20025;-76
2022/03/02 10:53:56;;;;;;;29.02;12.88;;;10.80;37.00;;;;;;5051954;28;20021;-72
2022/03/02 10:56:27;;;;;;;29.40;12.20;;;10.90;37.30;;;;;;5054370;28;20021;-73
2022/03/02 10:58:54;;;;;;;30.65;11.20;;;11.00;37.20;;;;;;5055645;28;20044;-73
2022/03/02 11:01:21;;;;;;;30.55;12.95;;;11.10;36.90;;;;;;5055333;28;20017;-72
2022/03/02 11:03:47;;;;;;;22.85;12.18;;;11.10;35.90;;;;;;5070795;28;20051;-74
2022/03/02 11:06:14;;;;;;;29.95;11.55;;;11.30;36.10;;;;;;5054221;28;20069;-76
2022/03/02 11:08:43;;;;;;;24.35;11.30;;;11.40;36.20;;;;;;5054833;28;20017;-72
2022/03/02 11:11:10;;;;;;;22.60;11.27;;;11.50;36.00;;;;;;5055319;28;20044;-76
2022/03/02 11:13:37;;;;;;;23.63;10.43;;;11.70;35.00;;;;;;5055297;28;20063;-76
2022/03/02 11:16:05;;;;;;;18.58;10.07;;;11.80;35.10;;;;;;5055085;28;20099;-75
2022/03/02 11:18:37;;;;;;;21.35;10.57;;;11.80;34.90;;;;;;5054913;28;20106;-75
2022/03/02 11:21:06;;;;;;;18.77;10.55;;;11.90;34.10;;;;;;5074382;28;20051;-72
2022/03/02 11:24:05;;;;;;;19.38;9.43;;;12.00;34.60;;;;;;5068006;28;20024;-77
2022/03/02 11:26:34;;;;;;;20.15;8.98;;;12.00;33.70;;;;;;5062288;28;20494;-73
2022/03/02 11:29:06;;;;;;;24.15;9.93;;;12.10;34.20;;;;;;5063149;28;20514;-73
2022/03/02 11:31:44;;;;;;;17.77;8.93;;;12.20;33.60;;;;;;5054708;28;20394;-76
2022/03/02 11:34:10;;;;;;;17.58;8.85;;;12.20;33.30;;;;;;5053638;28;20017;-73
2022/03/02 11:36:38;;;;;;;17.27;9.27;;;12.30;33.10;;;;;;5054847;28;20427;-76
2022/03/02 11:39:05;;;;;;;22.52;10.65;;;12.40;33.00;;;;;;5054656;28;20057;-74
2022/03/02 11:41:34;;;;;;;25.58;9.45;;;12.40;32.20;;;;;;5054371;28;20151;-76
2022/03/02 11:44:05;;;;;;;19.42;10.65;;;12.50;32.00;;;;;;5056750;28;20025;-72
2022/03/02 11:46:31;;;;;;;17.08;9.48;;;12.50;30.90;;;;;;5074244;28;20033;-74
2022/03/02 11:48:58;;;;;;;22.48;9.57;;;12.50;31.60;;;;;;5073062;28;20020;-77
2022/03/02 11:51:25;;;;;;;18.90;9.75;;;12.60;30.60;;;;;;5074554;28;20025;-74
2022/03/02 11:53:52;;;;;;;20.38;9.60;;;12.60;30.10;;;;;;5074519;28;20078;-72
2022/03/02 11:56:20;;;;;;;15.07;9.20;;;12.60;29.80;;;;;;5060488;28;20021;-75
2022/03/02 11:58:56;;;;;;;16.90;8.65;;;12.60;30.40;;;;;;5054286;28;20049;-74
2022/03/02 12:01:23;;;;;;;16.80;8.77;;;12.60;30.40;;;;;;5054436;28;20079;-75
2022/03/02 12:04:01;;;;;;;16.63;8.20;;;12.70;30.90;;;;;;5054377;28;20029;-74
2022/03/02 12:06:28;;;;;;;15.75;7.93;;;12.80;30.10;;;;;;5069085;28;20047;-75
2022/03/02 12:08:56;;;;;;;17.85;8.70;;;12.90;30.20;;;;;;5074220;28;20066;-77
2022/03/02 12:11:34;;;;;;;22.83;8.95;;;12.90;29.90;;;;;;5073985;28;20034;-75
2022/03/02 12:14:07;;;;;;;21.02;8.27;;;12.90;29.70;;;;;;5056886;28;20064;-74
2022/03/02 12:16:47;;;;;;;17.38;8.88;;;12.90;29.10;;;;;;5059540;28;20105;-75
2022/03/02 12:19:27;;;;;;;15.73;8.43;;;12.80;29.10;;;;;;5059098;28;20033;-73
2022/03/02 12:22:02;;;;;;;16.75;8.88;;;12.80;29.00;;;;;;5054776;28;20033;-77
2022/03/02 12:24:30;;;;;;;22.48;9.82;;;12.70;28.90;;;;;;5054159;28;20020;-76
2022/03/02 12:27:17;;;;;;;23.25;9.70;;;12.70;28.90;;;;;;5066377;28;20059;-72
2022/03/02 12:29:51;;;;;;;13.55;7.70;;;12.70;28.80;;;;;;5064469;28;20049;-79
2022/03/02 12:32:17;;;;;;;16.42;8.75;;;12.80;29.30;;;;;;5053503;28;20431;-78
2022/03/02 12:34:50;;;;;;;19.67;9.38;;;12.80;28.60;;;;;;5053591;28;20443;-78
2022/03/02 12:37:18;;;;;;;21.75;8.27;;;12.80;28.90;;;;;;5053820;28;20036;-74
2022/03/02 12:39:44;;;;;;;26.50;7.97;;;12.90;28.80;;;;;;5053639;28;20096;-72
2022/03/02 12:42:11;;;;;;;14.57;7.80;;;13.00;29.20;;;;;;5053926;28;20021;-73
2022/03/02 12:44:44;;;;;;;16.63;8.10;;;13.00;29.20;;;;;;5058895;28;20027;-79